createdAt,value
2023-05-13T00:00:10.709Z,-23507.00
2023-05-13T00:02:13.459Z,-23508.59
2023-05-13T00:04:16.219Z,-23507.63
2023-05-13T00:06:18.915Z,-23507.00
2023-05-13T00:08:21.587Z,-23506.22
2023-05-13T00:10:25.616Z,-23507.31
2023-05-13T00:12:28.306Z,-23505.25
2023-05-13T00:14:32.381Z,-23504.31
2023-05-13T00:16:35.067Z,-23504.78
2023-05-13T00:18:37.818Z,-23502.72
2023-05-13T00:20:40.940Z,-23503.03
2023-05-13T00:22:43.720Z,-23503.34
2023-05-13T00:24:46.420Z,-23505.56
2023-05-13T00:26:49.321Z,-23503.03
2023-05-13T00:28:51.909Z,-23504.47
2023-05-13T00:30:55.870Z,-23503.84
2023-05-13T00:32:58.694Z,-23504.78
2023-05-13T00:35:01.484Z,-23504.63
2023-05-13T00:37:04.849Z,-23502.72
2023-05-13T00:39:07.746Z,-23502.09
2023-05-13T00:41:10.438Z,-23502.09
2023-05-13T00:43:13.010Z,-23503.50
2023-05-13T00:45:15.932Z,-23500.97
2023-05-13T00:47:20.022Z,-23503.34
2023-05-13T00:49:22.820Z,-23502.41
2023-05-13T00:51:25.817Z,-23502.09
2023-05-13T00:53:28.541Z,-23500.19
2023-05-13T00:55:31.554Z,-23500.81
2023-05-13T00:57:34.797Z,-23502.09
2023-05-13T00:59:37.433Z,-23499.56
2023-05-13T01:01:46.110Z,-23500.81
2023-05-13T01:04:01.413Z,-23501.78
2023-05-13T01:06:11.663Z,-23499.72
2023-05-13T01:08:23.449Z,-23500.34
2023-05-13T01:10:35.502Z,-23497.03
2023-05-13T01:12:41.655Z,-23499.88
2023-05-13T01:14:53.171Z,-23500.81
2023-05-13T01:17:02.584Z,-23496.22
2023-05-13T01:19:15.259Z,-23497.34
2023-05-13T01:21:18.192Z,-23495.91
2023-05-13T01:23:22.167Z,-23498.28
2023-05-13T01:25:25.602Z,-23494.16
2023-05-13T01:27:28.416Z,-23495.13
2023-05-13T01:29:31.596Z,-23496.72
2023-05-13T01:31:34.394Z,-23491.31
2023-05-13T01:33:37.385Z,-23490.38
2023-05-13T01:35:40.276Z,-23489.91
2023-05-13T01:37:43.526Z,-23486.56
2023-05-13T01:39:48.485Z,-23487.19
2023-05-13T01:41:51.182Z,-23487.34
2023-05-13T01:43:54.034Z,-23482.13
2023-05-13T01:46:00.353Z,-23483.06
2023-05-13T01:48:03.226Z,-23484.34
2023-05-13T01:50:06.976Z,-23480.38
2023-05-13T01:52:09.628Z,-23479.25
2023-05-13T01:54:12.282Z,-23478.47
2023-05-13T01:56:16.306Z,-23479.09
2023-05-13T01:58:18.944Z,-23476.56
2023-05-13T02:00:22.280Z,-23475.63
2023-05-13T02:02:25.218Z,-23480.84
2023-05-13T02:04:28.357Z,-23478.31
2023-05-13T02:06:32.156Z,-23479.91
2023-05-13T02:08:34.902Z,-23477.38
2023-05-13T02:10:37.567Z,-23477.69
2023-05-13T02:12:41.652Z,-23476.41
2023-05-13T02:14:44.284Z,-23477.03
2023-05-13T02:16:46.927Z,-23475.47
2023-05-13T02:18:49.570Z,-23475.16
2023-05-13T02:20:52.390Z,-23473.41
2023-05-13T02:22:54.982Z,-23126.00
2023-05-13T02:24:57.577Z,-23473.25
2023-05-13T02:27:00.217Z,-23476.09
2023-05-13T02:29:04.210Z,-23484.19
2023-05-13T02:31:06.940Z,-23484.81
2023-05-13T02:33:09.815Z,-23483.38
2023-05-13T02:35:12.450Z,-23482.75
2023-05-13T02:37:15.125Z,-23482.13
2023-05-13T02:39:17.692Z,-23481.97
2023-05-13T02:41:20.287Z,-23480.22
2023-05-13T02:43:24.769Z,-23479.09
2023-05-13T02:45:28.742Z,-23477.03
2023-05-13T02:47:31.611Z,-23476.72
2023-05-13T02:49:34.276Z,-23474.50
2023-05-13T02:51:36.975Z,-23474.81
2023-05-13T02:53:39.596Z,-23472.44
2023-05-13T02:55:42.285Z,-23470.88
2023-05-13T02:57:45.083Z,-23473.25
2023-05-13T02:59:47.772Z,-23471.34
2023-05-13T03:01:51.819Z,-23470.06
2023-05-13T03:03:54.655Z,-23470.22
2023-05-13T03:05:57.638Z,-23469.59
2023-05-13T03:08:00.326Z,-23468.16
2023-05-13T03:10:02.918Z,-23468.31
2023-05-13T03:12:06.847Z,-23471.97
2023-05-13T03:14:09.589Z,-23471.66
2023-05-13T03:16:12.412Z,-23469.75
2023-05-13T03:18:16.532Z,-23473.41
2023-05-13T03:20:19.342Z,-23471.34
2023-05-13T03:22:22.175Z,-23471.97
2023-05-13T03:24:24.848Z,-23474.81
2023-05-13T03:26:27.553Z,-23474.66
2023-05-13T03:28:30.134Z,-23470.53
2023-05-13T03:30:32.881Z,-23469.44
2023-05-13T03:32:36.110Z,-23467.22
2023-05-13T03:34:40.101Z,-23465.94
2023-05-13T03:36:42.844Z,-23466.44
2023-05-13T03:38:45.477Z,-23468.50
2023-05-13T03:40:48.122Z,-23467.84
2023-05-13T03:42:50.785Z,-23467.84
2023-05-13T03:44:53.408Z,-23464.84
2023-05-13T03:46:56.298Z,-23466.56
2023-05-13T03:48:59.005Z,-23466.56
2023-05-13T03:51:03.146Z,-23468.81
2023-05-13T03:53:05.991Z,-23473.88
2023-05-13T03:55:09.595Z,-23465.63
2023-05-13T03:57:12.202Z,-23468.16
2023-05-13T03:59:14.853Z,-23465.16
2023-05-13T04:01:17.745Z,-23465.00
2023-05-13T04:03:20.665Z,-23463.72
2023-05-13T04:05:23.381Z,-23461.81
2023-05-13T04:07:27.409Z,-23462.13
2023-05-13T04:09:30.165Z,-23462.13
2023-05-13T04:11:33.001Z,-23463.72
2023-05-13T04:13:36.058Z,-23462.47
2023-05-13T04:15:38.700Z,-23463.41
2023-05-13T04:17:41.482Z,-23466.44
2023-05-13T04:19:44.588Z,-23461.81
2023-05-13T04:21:47.316Z,-23462.94
2023-05-13T04:23:51.278Z,-23463.72
2023-05-13T04:25:54.012Z,-23461.50
2023-05-13T04:27:56.713Z,-23462.13
2023-05-13T04:29:59.518Z,-23464.38
2023-05-13T04:32:02.228Z,-23462.47
2023-05-13T04:34:04.953Z,-23461.97
2023-05-13T04:36:07.940Z,-23461.19
2023-05-13T04:38:10.722Z,-23461.50
2023-05-13T04:40:15.088Z,-23462.94
2023-05-13T04:42:17.873Z,-23463.72
2023-05-13T04:44:20.684Z,-23465.00
2023-05-13T04:46:23.425Z,-23463.09
2023-05-13T04:48:28.178Z,-23464.03
2023-05-13T04:50:31.998Z,-23465.31
2023-05-13T04:52:39.033Z,-23463.72
2023-05-13T04:54:43.851Z,-23465.31
2023-05-13T04:56:47.910Z,-23463.41
2023-05-13T04:58:50.737Z,-23467.06
2023-05-13T05:00:53.460Z,-23465.63
2023-05-13T05:02:56.742Z,-23466.91
2023-05-13T05:04:59.498Z,-23463.88
2023-05-13T05:07:02.174Z,-23462.31
2023-05-13T05:09:05.076Z,-23460.88
2023-05-13T05:11:07.834Z,-23462.13
2023-05-13T05:13:11.869Z,-23463.09
2023-05-13T05:15:16.408Z,-23460.88
2023-05-13T05:17:19.083Z,-23464.53
2023-05-13T05:19:24.329Z,-23460.88
2023-05-13T05:21:27.156Z,-23464.84
2023-05-13T05:23:29.824Z,-23464.03
2023-05-13T05:25:32.591Z,-23463.25
2023-05-13T05:27:35.208Z,-23467.22
2023-05-13T05:29:39.198Z,-23465.31
2023-05-13T05:31:42.005Z,-23465.31
2023-05-13T05:33:45.346Z,-23465.00
2023-05-13T05:35:48.001Z,-23464.19
2023-05-13T05:37:50.685Z,-23465.47
2023-05-13T05:39:53.296Z,-23465.31
2023-05-13T05:41:56.074Z,-23466.56
2023-05-13T05:43:59.006Z,-23465.63
2023-05-13T05:46:03.230Z,-23469.91
2023-05-13T05:48:06.548Z,-23466.09
2023-05-13T05:50:10.024Z,-23466.56
2023-05-13T05:52:13.293Z,-23465.63
2023-05-13T05:54:16.007Z,-23468.00
2023-05-13T05:56:18.858Z,-23468.97
2023-05-13T05:58:21.614Z,-23467.84
2023-05-13T06:00:24.527Z,-23468.97
2023-05-13T06:02:28.634Z,-23471.03
2023-05-13T06:04:31.467Z,-23470.69
2023-05-13T06:06:34.335Z,-23470.22
2023-05-13T06:08:36.964Z,-23473.41
2023-05-13T06:10:39.783Z,-23472.75
2023-05-13T06:12:42.467Z,-23473.41
2023-05-13T06:14:45.076Z,-23471.97
2023-05-13T06:16:47.661Z,-23479.91
2023-05-13T06:18:51.675Z,-23473.56
2023-05-13T06:20:54.254Z,-23477.03
2023-05-13T06:22:57.652Z,-23475.78
2023-05-13T06:25:00.284Z,-23477.03
2023-05-13T06:27:03.015Z,-23477.03
2023-05-13T06:29:05.834Z,-23481.66
2023-05-13T06:31:08.473Z,-23480.06
2023-05-13T06:33:12.536Z,-23481.66
2023-05-13T06:35:16.881Z,-23482.75
2023-05-13T06:37:19.714Z,-23482.44
2023-05-13T06:39:22.400Z,-23484.34
2023-05-13T06:41:25.055Z,-23488.16
2023-05-13T06:43:27.848Z,-23487.50
2023-05-13T06:45:30.525Z,-23496.72
2023-05-13T06:47:33.245Z,-23493.22
2023-05-13T06:49:35.876Z,-23505.09
2023-05-13T06:51:40.031Z,-23495.75
2023-05-13T06:53:42.648Z,-23497.97
2023-05-13T06:55:45.320Z,-23501.94
2023-05-13T06:57:47.925Z,-23499.41
2023-05-13T06:59:50.567Z,-23502.88
2023-05-13T07:01:53.202Z,-23501.78
2023-05-13T07:03:55.947Z,-23505.72
2023-05-13T07:05:58.687Z,-23503.50
2023-05-13T07:08:06.728Z,-23502.72
2023-05-13T07:10:10.347Z,-23508.09
2023-05-13T07:12:13.024Z,-23504.16
2023-05-13T07:14:15.706Z,-23504.94
2023-05-13T07:16:18.669Z,-23512.84
2023-05-13T07:18:21.346Z,-23510.50
2023-05-13T07:20:24.723Z,-23510.97
2023-05-13T07:22:27.852Z,-23510.66
2023-05-13T07:24:31.872Z,-23510.97
2023-05-13T07:26:34.541Z,-23508.09
2023-05-13T07:28:37.173Z,-23511.59
2023-05-13T07:30:41.613Z,-23513.03
2023-05-13T07:32:44.361Z,-23526.00
2023-05-13T07:34:46.995Z,-23516.66
2023-05-13T07:36:49.642Z,-23525.53
2023-05-13T07:38:52.546Z,-23528.69
2023-05-13T07:40:56.547Z,-23527.28
2023-05-13T07:42:59.261Z,-23534.72
2023-05-13T07:45:01.953Z,-23526.63
2023-05-13T07:47:04.712Z,-23525.84
2023-05-13T07:49:08.815Z,-23517.63
2023-05-13T07:51:11.538Z,-23519.34
2023-05-13T07:53:14.366Z,-23528.38
2023-05-13T07:55:17.356Z,-23540.41
2023-05-13T07:57:21.370Z,-23543.75
2023-05-13T07:59:24.091Z,-23535.97
2023-05-13T08:01:27.172Z,-23537.88
2023-05-13T08:03:29.980Z,-23545.47
2023-05-13T08:05:32.817Z,-23539.31
2023-05-13T08:07:35.469Z,-23548.47
2023-05-13T08:09:38.101Z,-23545.94
2023-05-13T08:11:40.844Z,-23556.53
2023-05-13T08:13:44.858Z,-23550.53
2023-05-13T08:15:47.491Z,-23543.88
2023-05-13T08:17:50.205Z,-23547.84
2023-05-13T08:19:52.849Z,-23534.88
2023-05-13T08:21:55.499Z,-23529.66
2023-05-13T08:23:58.143Z,-23530.91
2023-05-13T08:26:00.782Z,-23525.38
2023-05-13T08:28:04.280Z,-23523.94
2023-05-13T08:30:09.796Z,-23526.00
2023-05-13T08:32:12.512Z,-23523.47
2023-05-13T08:34:15.202Z,-23517.47
2023-05-13T08:36:18.142Z,-23515.06
2023-05-13T08:38:20.821Z,-23510.66
2023-05-13T08:40:23.679Z,-23511.91
2023-05-13T08:42:27.939Z,-23513.81
2023-05-13T08:44:32.904Z,-23514.13
2023-05-13T08:46:39.290Z,-23509.84
2023-05-13T08:48:43.038Z,-23514.28
2023-05-13T08:50:46.048Z,-23517.63
2023-05-13T08:52:51.122Z,-23524.56
2023-05-13T08:54:54.766Z,-23523.16
2023-05-13T08:56:57.415Z,-23529.97
2023-05-13T08:59:00.060Z,-23529.16
2023-05-13T09:01:03.831Z,-23537.25
2023-05-13T09:03:08.014Z,-23537.88
2023-05-13T09:05:11.466Z,-23526.47
2023-05-13T09:07:14.148Z,-23530.28
2023-05-13T09:09:16.869Z,-23532.34
2023-05-13T09:11:19.824Z,-23529.00
2023-05-13T09:13:23.041Z,-23535.66
2023-05-13T09:15:27.423Z,-23530.75
2023-05-13T09:17:31.145Z,-23528.69
2023-05-13T09:19:36.882Z,-23534.06
2023-05-13T09:21:39.648Z,-23527.13
2023-05-13T09:23:42.305Z,-23525.84
2023-05-13T09:25:44.918Z,-23525.69
2023-05-13T09:27:49.490Z,-23525.69
2023-05-13T09:30:00.457Z,-23525.53
2023-05-13T09:32:07.576Z,-23520.78
2023-05-13T09:34:10.267Z,-23523.94
2023-05-13T09:36:14.257Z,-23537.25
2023-05-13T09:38:18.440Z,-23540.25
2023-05-13T09:40:21.480Z,-23540.41
2023-05-13T09:42:24.352Z,-23536.59
2023-05-13T09:44:27.868Z,-23544.06
2023-05-13T09:46:32.495Z,-23535.50
2023-05-13T09:48:38.034Z,-23547.22
2023-05-13T09:50:48.032Z,-23544.22
2023-05-13T09:52:52.149Z,-23536.13
2023-05-13T09:54:57.380Z,-23544.22
2023-05-13T09:57:01.147Z,-23540.41
2023-05-13T09:59:04.644Z,-23549.91
2023-05-13T10:01:07.529Z,-23547.06
2023-05-13T10:03:11.692Z,-23561.94
2023-05-13T10:05:14.817Z,-23570.78
2023-05-13T10:07:17.448Z,-23560.03
2023-05-13T10:09:22.198Z,-23569.50
2023-05-13T10:11:26.046Z,-23569.50
2023-05-13T10:13:32.576Z,-23563.50
2023-05-13T10:15:35.542Z,-23574.56
2023-05-13T10:17:39.038Z,-23578.22
2023-05-13T10:19:42.698Z,-23596.22
2023-05-13T10:21:45.821Z,-23597.81
2023-05-13T10:23:51.808Z,-23588.97
2023-05-13T10:25:56.341Z,-23590.06
2023-05-13T10:28:00.295Z,-23587.84
2023-05-13T10:30:09.565Z,-23585.16
2023-05-13T10:32:13.382Z,-23592.59
2023-05-13T10:34:16.190Z,-23592.59
2023-05-13T10:36:35.730Z,-23599.22
2023-05-13T10:38:53.630Z,-23595.75
2023-05-13T10:41:12.780Z,-23597.34
2023-05-13T10:43:18.830Z,-23608.69
2023-05-13T10:45:26.602Z,-23601.44
2023-05-13T10:47:33.080Z,-23600.19
2023-05-13T10:49:36.288Z,-23595.75
2023-05-13T10:51:46.358Z,-23594.34
2023-05-13T10:53:51.903Z,-23589.59
2023-05-13T10:55:56.557Z,-23581.22
2023-05-13T10:58:09.832Z,-23582.16
2023-05-13T11:00:16.871Z,-23576.47
2023-05-13T11:02:25.624Z,-23573.31
2023-05-13T11:04:28.372Z,-23574.88
2023-05-13T11:06:35.153Z,-23576.16
2023-05-13T11:08:39.710Z,-23576.78
2023-05-13T11:10:42.776Z,-23576.16
2023-05-13T11:13:20.823Z,-23578.69
2023-05-13T11:15:23.812Z,-23573.00
2023-05-13T11:17:26.615Z,-23562.88
2023-05-13T11:19:31.791Z,-23570.16
2023-05-13T11:21:39.532Z,-23572.03
2023-05-13T11:23:56.974Z,-23558.44
2023-05-13T11:26:14.087Z,-23563.19
2023-05-13T11:28:19.319Z,-23555.13
2023-05-13T11:30:24.328Z,-23561.78
2023-05-13T11:32:53.523Z,-23564.63
2023-05-13T11:34:56.304Z,-23563.66
2023-05-13T11:37:08.664Z,-23565.41
2023-05-13T11:39:14.735Z,-23566.50
2023-05-13T11:41:17.577Z,-23571.09
2023-05-13T11:43:25.044Z,-23568.09
2023-05-13T11:45:28.717Z,-23567.94
2023-05-13T11:47:31.398Z,-23573.00
2023-05-13T11:49:39.838Z,-23583.13
2023-05-13T11:51:42.528Z,-23585.66
2023-05-13T11:53:45.161Z,-23584.84
2023-05-13T11:55:48.037Z,-23589.75
2023-05-13T11:57:50.644Z,-23592.91
2023-05-13T11:59:56.722Z,-23597.19
2023-05-13T12:02:00.408Z,-23591.66
2023-05-13T12:04:03.360Z,-23587.84
2023-05-13T12:06:06.635Z,-23585.81
2023-05-13T12:08:10.688Z,-23577.72
2023-05-13T12:10:13.509Z,-23588.00
2023-05-13T12:12:16.876Z,-23590.06
2023-05-13T12:14:20.573Z,-23590.38
2023-05-13T12:16:25.048Z,-23593.53
2023-05-13T12:18:27.803Z,-23609.03
2023-05-13T12:20:30.424Z,-23595.28
2023-05-13T12:22:33.300Z,-23612.66
2023-05-13T12:24:36.227Z,-23601.59
2023-05-13T12:26:39.184Z,-23598.59
2023-05-13T12:28:41.846Z,-23606.81
2023-05-13T12:30:49.928Z,-23609.34
2023-05-13T12:32:59.695Z,-23603.66
2023-05-13T12:35:02.381Z,-23603.66
2023-05-13T12:37:12.366Z,-23607.28
2023-05-13T12:39:23.000Z,-23597.81
2023-05-13T12:41:26.767Z,-23603.66
2023-05-13T12:43:29.442Z,-23598.44
2023-05-13T12:45:33.488Z,-23606.66
2023-05-13T12:47:49.783Z,-23596.69
2023-05-13T12:49:54.470Z,-23599.22
2023-05-13T12:51:57.149Z,-23597.34
2023-05-13T12:53:59.717Z,-23605.53
2023-05-13T12:56:02.610Z,-23599.84
2023-05-13T12:58:05.324Z,-23591.34
2023-05-13T13:00:09.908Z,-23601.91
2023-05-13T13:02:12.609Z,-23598.44
2023-05-13T13:04:16.906Z,-23601.59
2023-05-13T13:06:21.124Z,-23616.28
2023-05-13T13:08:23.860Z,-23615.50
2023-05-13T13:10:26.705Z,-23617.88
2023-05-13T13:12:29.375Z,-23642.16
2023-05-13T13:14:31.994Z,-23628.13
2023-05-13T13:16:34.815Z,-23630.97
2023-05-13T13:18:37.564Z,-23615.81
2023-05-13T13:20:40.405Z,-23611.06
2023-05-13T13:22:44.346Z,-23610.91
2023-05-13T13:24:46.983Z,-23612.34
2023-05-13T13:26:50.092Z,-23615.34
2023-05-13T13:28:52.758Z,-23610.91
2023-05-13T13:30:55.807Z,-23606.34
2023-05-13T13:32:58.414Z,-23605.53
2023-05-13T13:35:02.925Z,-23604.91
2023-05-13T13:37:05.995Z,-23609.03
2023-05-13T13:39:10.094Z,-23604.28
2023-05-13T13:41:12.814Z,-23601.75
2023-05-13T13:43:15.475Z,-23597.66
2023-05-13T13:45:18.329Z,-23595.59
2023-05-13T13:47:20.985Z,-23591.97
2023-05-13T13:49:24.233Z,-23592.59
2023-05-13T13:51:26.997Z,-23600.66
2023-05-13T13:53:29.680Z,-23595.13
2023-05-13T13:55:33.987Z,-23592.75
2023-05-13T13:57:36.638Z,-23597.34
2023-05-13T13:59:39.728Z,-23601.13
2023-05-13T14:01:43.936Z,-23595.13
2023-05-13T14:03:46.645Z,-23598.44
2023-05-13T14:05:49.951Z,-23596.88
2023-05-13T14:07:54.009Z,-23604.28
2023-05-13T14:09:57.976Z,-23603.03
2023-05-13T14:12:02.949Z,-23599.22
2023-05-13T14:14:05.761Z,-23590.53
2023-05-13T14:16:08.842Z,-23591.00
2023-05-13T14:18:11.629Z,-23598.59
2023-05-13T14:20:14.348Z,-23590.06
2023-05-13T14:22:17.208Z,-23587.22
2023-05-13T14:24:19.867Z,-23587.38
2023-05-13T14:26:22.543Z,-23583.75
2023-05-13T14:28:26.625Z,-23588.31
2023-05-13T14:30:29.324Z,-23579.31
2023-05-13T14:32:31.981Z,-23577.41
2023-05-13T14:34:35.577Z,-23576.63
2023-05-13T14:36:38.260Z,-23576.16
2023-05-13T14:38:41.975Z,-23577.09
2023-05-13T14:40:44.689Z,-23575.03
2023-05-13T14:42:49.326Z,-23577.72
2023-05-13T14:44:53.350Z,-23576.31
2023-05-13T14:46:56.433Z,-23577.09
2023-05-13T14:48:59.124Z,-23574.56
2023-05-13T14:51:01.749Z,-23585.66
2023-05-13T14:53:04.400Z,-23594.66
2023-05-13T14:55:07.678Z,-23603.66
2023-05-13T14:57:10.918Z,-23596.38
2023-05-13T14:59:13.639Z,-23592.59
2023-05-13T15:01:17.692Z,-23596.38
2023-05-13T15:03:20.413Z,-23606.50
2023-05-13T15:05:23.172Z,-23611.22
2023-05-13T15:07:26.297Z,-23601.28
2023-05-13T15:09:28.901Z,-23605.84
2023-05-13T15:11:31.488Z,-23613.75
2023-05-13T15:13:35.725Z,-23609.34
2023-05-13T15:15:38.713Z,-23615.03
2023-05-13T15:17:42.716Z,-23596.38
2023-05-13T15:19:45.383Z,-23598.44
2023-05-13T15:21:48.055Z,-23605.53
2023-05-13T15:23:50.725Z,-23604.28
2023-05-13T15:25:53.399Z,-23604.59
2023-05-13T15:27:56.083Z,-23613.59
2023-05-13T15:29:58.834Z,-23618.66
2023-05-13T15:32:01.450Z,-23621.34
2023-05-13T15:34:05.559Z,-23619.44
2023-05-13T15:36:09.789Z,-23633.66
2023-05-13T15:38:12.472Z,-23645.00
2023-05-13T15:40:15.661Z,-23636.19
2023-05-13T15:42:18.282Z,-23621.03
2023-05-13T15:44:21.959Z,-23627.66
2023-05-13T15:46:24.780Z,-23618.97
2023-05-13T15:48:27.471Z,-23620.09
2023-05-13T15:50:31.893Z,-23618.81
2023-05-13T15:52:34.682Z,-23613.13
2023-05-13T15:54:37.336Z,-23617.53
2023-05-13T15:56:40.009Z,-23612.66
2023-05-13T15:58:42.605Z,-23615.66
2023-05-13T16:00:45.303Z,-23613.75
2023-05-13T16:02:47.989Z,-23610.75
2023-05-13T16:04:50.742Z,-23616.28
2023-05-13T16:06:54.685Z,-23610.91
2023-05-13T16:08:57.402Z,-23606.81
2023-05-13T16:11:00.235Z,-23607.75
2023-05-13T16:13:03.567Z,-23603.66
2023-05-13T16:15:07.328Z,-23604.75
2023-05-13T16:17:09.882Z,-23603.34
2023-05-13T16:19:13.827Z,-23613.75
2023-05-13T16:21:16.873Z,-23603.97
2023-05-13T16:23:20.834Z,-23594.81
2023-05-13T16:25:24.902Z,-23598.44
2023-05-13T16:27:28.268Z,-23596.69
2023-05-13T16:29:30.961Z,-23593.38
2023-05-13T16:31:33.736Z,-23595.13
2023-05-13T16:33:36.344Z,-23595.75
2023-05-13T16:35:39.043Z,-23597.34
2023-05-13T16:37:41.678Z,-23598.91
2023-05-13T16:39:48.780Z,-23595.13
2023-05-13T16:41:51.466Z,-23595.28
2023-05-13T16:43:54.125Z,-23598.44
2023-05-13T16:45:57.104Z,-23596.38
2023-05-13T16:47:59.891Z,-23588.00
2023-05-13T16:50:03.531Z,-23589.13
2023-05-13T16:52:07.302Z,-23590.53
2023-05-13T16:54:09.882Z,-23596.69
2023-05-13T16:56:13.866Z,-23594.97
2023-05-13T16:58:16.967Z,-23592.28
2023-05-13T17:00:20.664Z,-23591.00
2023-05-13T17:02:23.789Z,-23592.13
2023-05-13T17:04:26.629Z,-23592.28
2023-05-13T17:06:29.295Z,-23591.97
2023-05-13T17:08:32.017Z,-23598.44
2023-05-13T17:10:34.639Z,-23589.13
2023-05-13T17:12:38.612Z,-23587.53
2023-05-13T17:14:41.237Z,-23595.75
2023-05-13T17:16:44.072Z,-23594.97
2023-05-13T17:18:46.823Z,-23597.00
2023-05-13T17:20:49.454Z,-23595.75
2023-05-13T17:22:52.032Z,-23590.38
2023-05-13T17:24:54.654Z,-23590.38
2023-05-13T17:26:57.581Z,-23586.28
2023-05-13T17:29:01.590Z,-23590.38
2023-05-13T17:31:05.073Z,-23590.22
2023-05-13T17:33:07.797Z,-23587.53
2023-05-13T17:35:10.971Z,-23587.69
2023-05-13T17:37:13.731Z,-23586.59
2023-05-13T17:39:16.381Z,-23586.13
2023-05-13T17:41:19.050Z,-23587.38
2023-05-13T17:43:21.690Z,-23588.00
2023-05-13T17:45:25.749Z,-23585.47
2023-05-13T17:47:28.542Z,-23587.84
2023-05-13T17:49:31.224Z,-23582.16
2023-05-13T17:51:33.928Z,-23586.91
2023-05-13T17:53:36.561Z,-23588.50
2023-05-13T17:55:39.222Z,-23584.53
2023-05-13T17:57:41.952Z,-23585.47
2023-05-13T17:59:44.693Z,-23580.59
2023-05-13T18:01:48.680Z,-23580.28
2023-05-13T18:03:51.307Z,-23581.84
2023-05-13T18:05:54.161Z,-23582.16
2023-05-13T18:07:56.964Z,-23581.22
2023-05-13T18:09:59.726Z,-23585.97
2023-05-13T18:12:03.196Z,-23581.69
2023-05-13T18:14:06.740Z,-23585.66
2023-05-13T18:16:10.921Z,-23591.34
2023-05-13T18:18:16.231Z,-23582.47
2023-05-13T18:20:19.202Z,-23582.16
2023-05-13T18:22:21.913Z,-23580.59
2023-05-13T18:24:24.592Z,-23577.72
2023-05-13T18:26:27.541Z,-23579.16
2023-05-13T18:28:30.248Z,-23580.91
2023-05-13T18:30:33.065Z,-23581.06
2023-05-13T18:32:35.739Z,-23578.84
2023-05-13T18:34:39.839Z,-23575.53
2023-05-13T18:36:42.962Z,-23574.88
2023-05-13T18:38:47.824Z,-23575.38
2023-05-13T18:40:50.711Z,-23574.88
2023-05-13T18:42:53.471Z,-23572.69
2023-05-13T18:44:56.192Z,-23575.22
2023-05-13T18:46:58.805Z,-23573.31
2023-05-13T18:49:04.587Z,-23569.84
2023-05-13T18:51:08.712Z,-23568.88
2023-05-13T18:53:11.477Z,-23567.31
2023-05-13T18:55:14.097Z,-23567.16
2023-05-13T18:57:17.002Z,-23567.47
2023-05-13T18:59:19.714Z,-23567.78
2023-05-13T19:01:22.513Z,-23575.03
2023-05-13T19:03:26.974Z,-23572.34
2023-05-13T19:05:29.763Z,-23565.25
2023-05-13T19:07:33.802Z,-23560.34
2023-05-13T19:09:36.495Z,-23558.28
2023-05-13T19:11:39.255Z,-23556.53
2023-05-13T19:13:47.314Z,-23554.66
2023-05-13T19:15:50.522Z,-23553.38
2023-05-13T19:17:53.606Z,-23549.28
2023-05-13T19:19:57.338Z,-23551.81
2023-05-13T19:22:00.072Z,-23552.91
2023-05-13T19:24:04.333Z,-23554.50
2023-05-13T19:26:07.185Z,-23551.00
2023-05-13T19:28:10.945Z,-23548.97
2023-05-13T19:30:14.240Z,-23546.25
2023-05-13T19:32:17.449Z,-23545.16
2023-05-13T19:34:20.256Z,-23545.00
2023-05-13T19:36:25.990Z,-23544.84
2023-05-13T19:38:28.761Z,-23542.63
2023-05-13T19:40:32.781Z,-23542.94
2023-05-13T19:42:35.627Z,-23544.22
2023-05-13T19:44:38.634Z,-23543.75
2023-05-13T19:46:41.391Z,-23543.56
2023-05-13T19:48:44.234Z,-23544.53
2023-05-13T19:50:46.876Z,-23542.47
2023-05-13T19:52:49.560Z,-23540.25
2023-05-13T19:54:52.863Z,-23540.25
2023-05-13T19:56:56.865Z,-23538.19
2023-05-13T19:58:59.468Z,-23533.28
2023-05-13T20:01:02.120Z,-23531.84
2023-05-13T20:03:05.412Z,-23529.66
2023-05-13T20:05:09.590Z,-23528.06
2023-05-13T20:07:12.238Z,-23526.78
2023-05-13T20:09:14.944Z,-23525.22
2023-05-13T20:11:17.751Z,-23529.34
2023-05-13T20:13:21.753Z,-23529.66
2023-05-13T20:15:24.372Z,-23529.66
2023-05-13T20:17:27.267Z,-23529.81
2023-05-13T20:19:30.008Z,-23526.78
2023-05-13T20:21:32.642Z,-23525.53
2023-05-13T20:23:35.312Z,-23525.06
2023-05-13T20:25:38.018Z,-23525.69
2023-05-13T20:27:40.682Z,-23525.22
2023-05-13T20:29:46.840Z,-23526.94
2023-05-13T20:31:49.574Z,-23529.34
2023-05-13T20:33:52.203Z,-23531.22
2023-05-13T20:35:55.183Z,-23531.69
2023-05-13T20:37:58.524Z,-23533.13
2023-05-13T20:40:01.230Z,-23532.34
2023-05-13T20:42:04.042Z,-23535.50
2023-05-13T20:44:07.046Z,-23538.19
2023-05-13T20:46:16.713Z,-23539.94
2023-05-13T20:48:19.659Z,-23541.19
2023-05-13T20:50:22.545Z,-23540.72
2023-05-13T20:52:26.465Z,-23540.09
2023-05-13T20:54:29.127Z,-23543.56
2023-05-13T20:56:31.936Z,-23543.41
2023-05-13T20:58:34.723Z,-23545.47
2023-05-13T21:00:37.346Z,-23546.09
2023-05-13T21:02:41.443Z,-23545.47
2023-05-13T21:04:44.185Z,-23546.91
2023-05-13T21:06:46.830Z,-23547.38
2023-05-13T21:08:51.187Z,-23548.63
2023-05-13T21:10:56.165Z,-23549.28
2023-05-13T21:12:59.100Z,-23549.28
2023-05-13T21:15:01.824Z,-23549.91
2023-05-13T21:17:04.511Z,-23549.75
2023-05-13T21:19:08.568Z,-23549.75
2023-05-13T21:21:12.489Z,-23550.06
2023-05-13T21:23:15.294Z,-23550.22
2023-05-13T21:25:17.888Z,-23545.16
2023-05-13T21:27:21.268Z,-23542.78
2023-05-13T21:29:24.146Z,-23539.00
2023-05-13T21:31:27.010Z,-23540.09
2023-05-13T21:33:29.955Z,-23542.63
2023-05-13T21:35:34.010Z,-23540.41
2023-05-13T21:37:38.640Z,-23539.16
2023-05-13T21:39:41.363Z,-23538.19
2023-05-13T21:41:44.306Z,-23537.88
2023-05-13T21:43:46.923Z,-23534.88
2023-05-13T21:45:49.998Z,-23537.09
2023-05-13T21:47:52.694Z,-23537.25
2023-05-13T21:49:55.288Z,-23536.59
2023-05-13T21:51:59.382Z,-23535.81
2023-05-13T21:54:02.056Z,-23536.28
2023-05-13T21:56:04.958Z,-23535.66
2023-05-13T21:58:07.613Z,-23536.78
2023-05-13T22:00:15.066Z,-23538.66
2023-05-13T22:02:17.756Z,-23538.66
2023-05-13T22:04:20.387Z,-23538.19
2023-05-13T22:06:23.052Z,-23539.47
2023-05-13T22:08:27.064Z,-23540.25
2023-05-13T22:10:30.731Z,-23538.84
2023-05-13T22:12:33.380Z,-23539.78
2023-05-13T22:14:36.047Z,-23539.63
2023-05-13T22:16:38.843Z,-23539.78
2023-05-13T22:18:42.266Z,-23540.25
2023-05-13T22:20:45.138Z,-23540.72
2023-05-13T22:22:47.801Z,-23539.78
2023-05-13T22:24:51.831Z,-23538.84
2023-05-13T22:26:54.528Z,-23537.72
2023-05-13T22:28:57.213Z,-23536.94
2023-05-13T22:30:59.998Z,-23537.41
2023-05-13T22:33:02.674Z,-23536.13
2023-05-13T22:35:05.988Z,-23533.75
2023-05-13T22:37:08.652Z,-23533.13
2023-05-13T22:39:12.141Z,-23532.03
2023-05-13T22:41:18.866Z,-23532.81
2023-05-13T22:43:21.641Z,-23532.19
2023-05-13T22:45:24.289Z,-23532.19
2023-05-13T22:47:27.276Z,-23532.19
2023-05-13T22:49:30.025Z,-23532.19
2023-05-13T22:51:32.718Z,-23533.13
2023-05-13T22:53:35.411Z,-23532.50
2023-05-13T22:55:38.348Z,-23531.84
2023-05-13T22:57:42.355Z,-23530.59
2023-05-13T22:59:45.040Z,-23529.66
2023-05-13T23:01:47.748Z,-23530.28
2023-05-13T23:03:50.501Z,-23529.97
2023-05-13T23:05:53.158Z,-23530.44
2023-05-13T23:07:55.936Z,-23529.47
2023-05-13T23:09:58.790Z,-23529.97
2023-05-13T23:12:01.486Z,-23530.28
2023-05-13T23:14:05.757Z,-23529.47
2023-05-13T23:16:08.463Z,-23530.28
2023-05-13T23:18:11.367Z,-23531.22
2023-05-13T23:20:14.232Z,-23532.03
2023-05-13T23:22:16.897Z,-23530.75
2023-05-13T23:24:19.644Z,-23533.44
2023-05-13T23:26:24.667Z,-23534.72
2023-05-13T23:28:27.314Z,-23532.34
2023-05-13T23:30:31.418Z,-23531.22